createdAt,value
2023-03-30T00:00:35.487Z,628.00
2023-03-30T00:01:35.449Z,632.00
2023-03-30T00:02:35.461Z,631.00
2023-03-30T00:03:35.447Z,631.00
2023-03-30T00:04:35.355Z,631.00
2023-03-30T00:05:35.266Z,630.00
2023-03-30T00:06:35.200Z,629.00
2023-03-30T00:07:35.159Z,630.00
2023-03-30T00:08:35.105Z,630.00
2023-03-30T00:09:35.062Z,628.00
2023-03-30T00:10:35.003Z,628.00
2023-03-30T00:11:34.962Z,630.00
2023-03-30T00:12:34.925Z,629.00
2023-03-30T00:13:34.882Z,630.00
2023-03-30T00:14:34.838Z,628.00
2023-03-30T00:15:34.798Z,629.00
2023-03-30T00:16:34.807Z,628.00
2023-03-30T00:17:34.779Z,629.00
2023-03-30T00:18:34.671Z,630.00
2023-03-30T00:19:34.615Z,634.00
2023-03-30T00:20:34.652Z,630.00
2023-03-30T00:21:34.534Z,629.00
2023-03-30T00:22:34.501Z,628.00
2023-03-30T00:23:34.461Z,628.00
2023-03-30T00:24:34.410Z,629.00
2023-03-30T00:25:34.370Z,630.00
2023-03-30T00:26:34.322Z,629.00
2023-03-30T00:27:34.276Z,630.00
2023-03-30T00:28:34.238Z,630.00
2023-03-30T00:29:34.202Z,630.00
2023-03-30T00:30:34.150Z,630.00
2023-03-30T00:31:34.130Z,632.00
2023-03-30T00:32:34.081Z,630.00
2023-03-30T00:33:44.695Z,630.00
2023-03-30T00:34:34.965Z,630.00
2023-03-30T00:35:33.941Z,630.00
2023-03-30T00:36:33.819Z,630.00
2023-03-30T00:37:33.754Z,631.00
2023-03-30T00:38:33.680Z,630.00
2023-03-30T00:39:33.618Z,631.00
2023-03-30T00:40:33.542Z,631.00
2023-03-30T00:41:33.473Z,632.00
2023-03-30T00:42:33.415Z,630.00
2023-03-30T00:43:33.338Z,629.00
2023-03-30T00:44:33.249Z,629.00
2023-03-30T00:45:33.185Z,628.00
2023-03-30T00:46:33.217Z,628.00
2023-03-30T00:47:33.056Z,627.00
2023-03-30T00:48:32.953Z,628.00
2023-03-30T00:49:32.875Z,627.00
2023-03-30T00:50:32.806Z,629.00
2023-03-30T00:51:32.724Z,630.00
2023-03-30T00:52:32.644Z,629.00
2023-03-30T00:53:32.627Z,628.00
2023-03-30T00:54:32.560Z,629.00
2023-03-30T00:55:32.517Z,627.00
2023-03-30T00:56:32.480Z,629.00
2023-03-30T00:57:32.418Z,629.00
2023-03-30T00:58:32.343Z,629.00
2023-03-30T00:59:32.255Z,629.00
2023-03-30T01:00:32.184Z,627.00
2023-03-30T01:01:32.175Z,628.00
2023-03-30T01:02:32.118Z,626.00
2023-03-30T01:03:32.050Z,627.00
2023-03-30T01:04:31.918Z,628.00
2023-03-30T01:05:31.849Z,626.00
2023-03-30T01:06:31.814Z,629.00
2023-03-30T01:07:31.735Z,629.00
2023-03-30T01:08:31.648Z,627.00
2023-03-30T01:09:31.579Z,624.00
2023-03-30T01:10:31.489Z,628.00
2023-03-30T01:11:31.423Z,629.00
2023-03-30T01:12:31.355Z,625.00
2023-03-30T01:13:31.276Z,625.00
2023-03-30T01:14:31.210Z,629.00
2023-03-30T01:15:31.178Z,629.00
2023-03-30T01:16:31.063Z,629.00
2023-03-30T01:17:31.019Z,630.00
2023-03-30T01:18:30.918Z,625.00
2023-03-30T01:19:30.854Z,627.00
2023-03-30T01:20:30.785Z,629.00
2023-03-30T01:21:30.698Z,628.00
2023-03-30T01:22:30.621Z,627.00
2023-03-30T01:23:30.550Z,627.00
2023-03-30T01:24:30.483Z,623.00
2023-03-30T01:25:30.422Z,626.00
2023-03-30T01:26:30.344Z,625.00
2023-03-30T01:27:30.281Z,626.00
2023-03-30T01:28:30.195Z,626.00
2023-03-30T01:29:30.128Z,627.00
2023-03-30T01:30:30.052Z,627.00
2023-03-30T01:31:30.031Z,628.00
2023-03-30T01:32:29.944Z,628.00
2023-03-30T01:33:29.851Z,626.00
2023-03-30T01:34:29.780Z,627.00
2023-03-30T01:35:29.753Z,625.00
2023-03-30T01:36:29.731Z,626.00
2023-03-30T01:37:29.578Z,624.00
2023-03-30T01:38:29.514Z,623.00
2023-03-30T01:39:29.479Z,623.00
2023-03-30T01:40:29.422Z,625.00
2023-03-30T01:41:29.384Z,620.00
2023-03-30T01:42:29.324Z,624.00
2023-03-30T01:43:29.285Z,621.00
2023-03-30T01:44:29.229Z,623.00
2023-03-30T01:45:29.187Z,623.00
2023-03-30T01:46:29.230Z,624.00
2023-03-30T01:47:29.132Z,624.00
2023-03-30T01:48:29.051Z,623.00
2023-03-30T01:49:29.001Z,626.00
2023-03-30T01:50:28.959Z,624.00
2023-03-30T01:51:28.896Z,621.00
2023-03-30T01:52:28.919Z,626.00
2023-03-30T01:53:28.807Z,623.00
2023-03-30T01:54:28.760Z,625.00
2023-03-30T01:55:28.704Z,623.00
2023-03-30T01:56:28.677Z,624.00
2023-03-30T01:57:28.619Z,625.00
2023-03-30T01:58:28.550Z,624.00
2023-03-30T01:59:28.502Z,621.00
2023-03-30T02:00:28.458Z,622.00
2023-03-30T02:01:28.461Z,622.00
2023-03-30T02:02:28.455Z,622.00
2023-03-30T02:03:28.765Z,624.00
2023-03-30T02:04:28.271Z,622.00
2023-03-30T02:05:28.212Z,624.00
2023-03-30T02:06:28.167Z,621.00
2023-03-30T02:07:28.149Z,623.00
2023-03-30T02:08:28.075Z,620.00
2023-03-30T02:09:28.031Z,622.00
2023-03-30T02:10:27.977Z,622.00
2023-03-30T02:11:27.927Z,622.00
2023-03-30T02:12:27.877Z,621.00
2023-03-30T02:13:27.831Z,620.00
2023-03-30T02:14:27.784Z,621.00
2023-03-30T02:15:27.745Z,621.00
2023-03-30T02:16:27.704Z,621.00
2023-03-30T02:17:27.651Z,619.00
2023-03-30T02:18:27.587Z,620.00
2023-03-30T02:19:27.568Z,618.00
2023-03-30T02:20:27.502Z,620.00
2023-03-30T02:21:27.455Z,621.00
2023-03-30T02:22:27.407Z,620.00
2023-03-30T02:23:27.375Z,621.00
2023-03-30T02:24:27.316Z,620.00
2023-03-30T02:25:27.280Z,616.00
2023-03-30T02:26:27.244Z,622.00
2023-03-30T02:27:27.186Z,621.00
2023-03-30T02:28:27.144Z,622.00
2023-03-30T02:29:27.071Z,622.00
2023-03-30T02:30:27.023Z,622.00
2023-03-30T02:31:26.978Z,622.00
2023-03-30T02:32:26.923Z,622.00
2023-03-30T02:33:26.792Z,620.00
2023-03-30T02:34:26.719Z,622.00
2023-03-30T02:35:26.659Z,620.00
2023-03-30T02:36:26.577Z,621.00
2023-03-30T02:37:26.507Z,623.00
2023-03-30T02:38:26.435Z,620.00
2023-03-30T02:39:26.374Z,617.00
2023-03-30T02:40:26.304Z,621.00
2023-03-30T02:41:26.224Z,621.00
2023-03-30T02:42:26.142Z,620.00
2023-03-30T02:43:26.076Z,618.00
2023-03-30T02:44:26.008Z,618.00
2023-03-30T02:45:25.947Z,618.00
2023-03-30T02:46:25.893Z,619.00
2023-03-30T02:47:25.866Z,619.00
2023-03-30T02:48:25.719Z,619.00
2023-03-30T02:49:25.646Z,619.00
2023-03-30T02:50:25.570Z,619.00
2023-03-30T02:51:25.502Z,618.00
2023-03-30T02:52:25.441Z,620.00
2023-03-30T02:53:25.374Z,618.00
2023-03-30T02:54:25.305Z,621.00
2023-03-30T02:55:25.253Z,607.00
2023-03-30T02:56:25.165Z,572.00
2023-03-30T02:57:25.137Z,560.00
2023-03-30T02:58:25.051Z,553.00
2023-03-30T02:59:24.975Z,540.00
2023-03-30T03:00:24.911Z,536.00
2023-03-30T03:01:24.947Z,520.00
2023-03-30T03:02:24.822Z,500.00
2023-03-30T03:03:24.836Z,500.00
2023-03-30T03:04:24.645Z,500.00
2023-03-30T03:05:24.590Z,500.00
2023-03-30T03:06:24.524Z,500.00
2023-03-30T03:07:24.536Z,500.00
2023-03-30T03:08:24.537Z,500.00
2023-03-30T03:09:24.546Z,500.00
2023-03-30T03:10:24.553Z,500.00
2023-03-30T03:11:24.558Z,500.00
2023-03-30T03:12:24.578Z,503.00
2023-03-30T03:13:24.595Z,505.00
2023-03-30T03:14:24.589Z,500.00
2023-03-30T03:15:24.598Z,500.00
2023-03-30T03:16:24.594Z,502.00
2023-03-30T03:17:24.601Z,500.00
2023-03-30T03:18:24.508Z,500.00
2023-03-30T03:19:24.477Z,501.00
2023-03-30T03:20:24.437Z,500.00
2023-03-30T03:21:24.365Z,501.00
2023-03-30T03:22:24.304Z,503.00
2023-03-30T03:23:24.272Z,501.00
2023-03-30T03:24:24.210Z,502.00
2023-03-30T03:25:24.166Z,504.00
2023-03-30T03:26:24.116Z,500.00
2023-03-30T03:27:24.075Z,503.00
2023-03-30T03:28:24.046Z,502.00
2023-03-30T03:29:24.003Z,500.00
2023-03-30T03:30:23.963Z,503.00
2023-03-30T03:31:23.934Z,504.00
2023-03-30T03:32:23.905Z,502.00
2023-03-30T03:33:23.813Z,500.00
2023-03-30T03:34:23.764Z,500.00
2023-03-30T03:35:23.718Z,506.00
2023-03-30T03:36:23.749Z,499.00
2023-03-30T03:37:23.637Z,500.00
2023-03-30T03:38:23.593Z,500.00
2023-03-30T03:39:23.547Z,499.00
2023-03-30T03:40:23.511Z,500.00
2023-03-30T03:41:23.460Z,499.00
2023-03-30T03:42:23.392Z,483.00
2023-03-30T03:43:23.346Z,483.00
2023-03-30T03:44:23.283Z,479.00
2023-03-30T03:45:23.238Z,489.00
2023-03-30T03:46:23.210Z,501.00
2023-03-30T03:47:23.182Z,510.00
2023-03-30T03:48:23.077Z,510.00
2023-03-30T03:49:23.020Z,509.00
2023-03-30T03:50:22.960Z,511.00
2023-03-30T03:51:22.907Z,514.00
2023-03-30T03:52:22.847Z,519.00
2023-03-30T03:53:22.807Z,509.00
2023-03-30T03:54:22.747Z,512.00
2023-03-30T03:55:22.686Z,517.00
2023-03-30T03:56:22.645Z,505.00
2023-03-30T03:57:22.620Z,504.00
2023-03-30T03:58:22.536Z,505.00
2023-03-30T03:59:22.479Z,507.00
2023-03-30T04:00:22.450Z,511.00
2023-03-30T04:01:22.367Z,508.00
2023-03-30T04:02:24.063Z,514.00
2023-03-30T04:03:22.297Z,510.00
2023-03-30T04:04:22.242Z,519.00
2023-03-30T04:05:22.156Z,521.00
2023-03-30T04:06:22.122Z,522.00
2023-03-30T04:07:22.066Z,533.00
2023-03-30T04:08:22.017Z,546.00
2023-03-30T04:09:21.972Z,533.00
2023-03-30T04:10:21.931Z,534.00
2023-03-30T04:11:21.907Z,536.00
2023-03-30T04:12:21.828Z,538.00
2023-03-30T04:13:21.778Z,545.00
2023-03-30T04:14:21.735Z,543.00
2023-03-30T04:15:21.683Z,554.00
2023-03-30T04:16:21.845Z,557.00
2023-03-30T04:17:21.604Z,560.00
2023-03-30T04:18:21.576Z,562.00
2023-03-30T04:19:21.505Z,568.00
2023-03-30T04:20:21.466Z,564.00
2023-03-30T04:21:21.424Z,573.00
2023-03-30T04:22:21.375Z,569.00
2023-03-30T04:23:21.329Z,569.00
2023-03-30T04:24:21.293Z,569.00
2023-03-30T04:25:22.567Z,570.00
2023-03-30T04:26:21.212Z,564.00
2023-03-30T04:27:21.173Z,549.00
2023-03-30T04:28:21.120Z,552.00
2023-03-30T04:29:21.083Z,545.00
2023-03-30T04:30:21.027Z,549.00
2023-03-30T04:31:21.004Z,542.00
2023-03-30T04:32:20.981Z,534.00
2023-03-30T04:33:20.871Z,527.00
2023-03-30T04:34:20.819Z,508.00
2023-03-30T04:35:20.777Z,503.00
2023-03-30T04:36:20.743Z,500.00
2023-03-30T04:37:20.679Z,508.00
2023-03-30T04:38:20.637Z,519.00
2023-03-30T04:39:20.585Z,516.00
2023-03-30T04:40:20.550Z,513.00
2023-03-30T04:41:20.509Z,509.00
2023-03-30T04:42:20.478Z,508.00
2023-03-30T04:43:20.417Z,511.00
2023-03-30T04:44:20.381Z,520.00
2023-03-30T04:45:20.338Z,524.00
2023-03-30T04:46:20.377Z,532.00
2023-03-30T04:47:20.255Z,523.00
2023-03-30T04:48:20.218Z,539.00
2023-03-30T04:49:20.177Z,535.00
2023-03-30T04:50:20.141Z,534.00
2023-03-30T04:51:20.110Z,527.00
2023-03-30T04:52:20.062Z,514.00
2023-03-30T04:53:20.010Z,518.00
2023-03-30T04:54:19.975Z,518.00
2023-03-30T04:55:19.928Z,514.00
2023-03-30T04:56:19.868Z,520.00
2023-03-30T04:57:19.906Z,525.00
2023-03-30T04:58:19.794Z,524.00
2023-03-30T04:59:19.727Z,524.00
2023-03-30T05:00:19.689Z,529.00
2023-03-30T05:01:19.696Z,514.00
2023-03-30T05:02:19.676Z,512.00
2023-03-30T05:04:19.607Z,512.00
2023-03-30T05:05:19.571Z,521.00
2023-03-30T05:06:19.575Z,513.00
2023-03-30T05:07:19.503Z,514.00
2023-03-30T05:08:19.468Z,516.00
2023-03-30T05:09:19.398Z,523.00
2023-03-30T05:10:19.361Z,528.00
2023-03-30T05:11:19.299Z,539.00
2023-03-30T05:12:19.263Z,544.00
2023-03-30T05:13:19.199Z,545.00
2023-03-30T05:14:19.160Z,553.00
2023-03-30T05:15:19.099Z,551.00
2023-03-30T05:16:19.158Z,563.00
2023-03-30T05:17:19.033Z,546.00
2023-03-30T05:18:18.973Z,557.00
2023-03-30T05:19:18.919Z,551.00
2023-03-30T05:20:18.895Z,573.00
2023-03-30T05:21:18.835Z,600.00
2023-03-30T05:22:18.831Z,612.00
2023-03-30T05:23:18.778Z,631.00
2023-03-30T05:24:18.737Z,640.00
2023-03-30T05:25:18.703Z,662.00
2023-03-30T05:26:18.715Z,667.00
2023-03-30T05:27:18.614Z,690.00
2023-03-30T05:28:18.577Z,698.00
2023-03-30T05:29:18.552Z,708.00
2023-03-30T05:30:18.475Z,752.00
2023-03-30T05:31:18.429Z,753.00
2023-03-30T05:32:18.390Z,784.00
2023-03-30T05:33:18.331Z,786.00
2023-03-30T05:34:18.280Z,802.00
2023-03-30T05:35:18.236Z,830.00
2023-03-30T05:36:18.206Z,879.00
2023-03-30T05:37:18.117Z,975.00
2023-03-30T05:38:18.058Z,1018.00
2023-03-30T05:39:18.003Z,1042.00
2023-03-30T05:40:17.926Z,1070.00
2023-03-30T05:41:17.889Z,1072.00
2023-03-30T05:42:17.819Z,1074.00
2023-03-30T05:43:17.739Z,1084.00
2023-03-30T05:44:18.231Z,1104.00
2023-03-30T05:45:17.630Z,1144.00
2023-03-30T05:46:17.590Z,1202.00
2023-03-30T05:47:17.520Z,1223.00
2023-03-30T05:48:17.472Z,1248.00
2023-03-30T05:49:17.406Z,1268.00
2023-03-30T05:50:17.320Z,1271.00
2023-03-30T05:51:17.253Z,1285.00
2023-03-30T05:52:17.287Z,1307.00
2023-03-30T05:53:17.245Z,1311.00
2023-03-30T05:54:17.229Z,1310.00
2023-03-30T05:55:17.220Z,1295.00
2023-03-30T05:56:17.258Z,1273.00
2023-03-30T05:57:17.231Z,1275.00
2023-03-30T05:58:17.179Z,1280.00
2023-03-30T05:59:17.162Z,1313.00
2023-03-30T06:00:17.155Z,1317.00
2023-03-30T06:01:17.170Z,1314.00
2023-03-30T06:02:17.137Z,1296.00
2023-03-30T06:03:17.286Z,1259.00
2023-03-30T06:04:17.173Z,1281.00
2023-03-30T06:05:17.100Z,1314.00
2023-03-30T06:06:17.099Z,1288.00
2023-03-30T06:07:17.102Z,1230.00
2023-03-30T06:08:17.115Z,1191.00
2023-03-30T06:09:17.077Z,1208.00
2023-03-30T06:10:17.085Z,1202.00
2023-03-30T06:11:17.069Z,1190.00
2023-03-30T06:12:17.082Z,1166.00
2023-03-30T06:13:17.082Z,1178.00
2023-03-30T06:14:17.076Z,1187.00
2023-03-30T06:15:17.052Z,1170.00
2023-03-30T06:16:17.141Z,1194.00
2023-03-30T06:17:17.053Z,1178.00
2023-03-30T06:18:17.124Z,1119.00
2023-03-30T06:19:17.052Z,1143.00
2023-03-30T06:20:17.053Z,1134.00
2023-03-30T06:21:17.077Z,1107.00
2023-03-30T06:22:17.065Z,1084.00
2023-03-30T06:23:17.037Z,951.00
2023-03-30T06:24:17.032Z,895.00
2023-03-30T06:25:17.041Z,858.00
2023-03-30T06:26:17.033Z,910.00
2023-03-30T06:27:17.036Z,976.00
2023-03-30T06:28:17.114Z,1024.00
2023-03-30T06:29:17.064Z,1041.00
2023-03-30T06:30:17.072Z,1044.00
2023-03-30T06:31:17.130Z,941.00
2023-03-30T06:32:17.160Z,933.00
2023-03-30T06:33:17.078Z,966.00
2023-03-30T06:34:17.098Z,1031.00
2023-03-30T06:35:17.081Z,1042.00
2023-03-30T06:36:17.091Z,1038.00
2023-03-30T06:37:17.140Z,1078.00
2023-03-30T06:38:17.089Z,1060.00
2023-03-30T06:39:17.093Z,1067.00
2023-03-30T06:40:17.097Z,1097.00
2023-03-30T06:41:17.103Z,1033.00
2023-03-30T06:42:17.099Z,1076.00
2023-03-30T06:43:17.107Z,1003.00
2023-03-30T06:44:17.107Z,957.00
2023-03-30T06:45:17.139Z,790.00
2023-03-30T06:46:17.160Z,852.00
2023-03-30T06:47:17.118Z,881.00
2023-03-30T06:48:17.133Z,941.00
2023-03-30T06:49:17.215Z,973.00
2023-03-30T06:50:17.149Z,943.00
2023-03-30T06:51:17.184Z,1050.00
2023-03-30T06:52:17.176Z,1134.00
2023-03-30T06:53:17.192Z,1184.00
2023-03-30T06:54:17.169Z,1170.00
2023-03-30T06:55:17.164Z,1209.00
2023-03-30T06:56:17.148Z,1229.00
2023-03-30T06:57:17.134Z,1212.00
2023-03-30T06:58:17.124Z,1206.00
2023-03-30T06:59:17.113Z,1216.00
2023-03-30T07:00:17.130Z,1246.00
2023-03-30T07:01:17.187Z,1260.00
2023-03-30T07:02:17.090Z,1248.00
2023-03-30T07:03:17.047Z,1249.00
2023-03-30T07:04:17.004Z,1255.00
2023-03-30T07:05:16.877Z,1268.00
2023-03-30T07:06:18.111Z,1314.00
2023-03-30T07:07:16.844Z,1385.00
2023-03-30T07:08:16.777Z,1253.00
2023-03-30T07:09:16.710Z,1273.00
2023-03-30T07:10:16.641Z,1306.00
2023-03-30T07:11:16.576Z,1369.00
2023-03-30T07:12:16.513Z,1446.00
2023-03-30T07:13:16.464Z,1473.00
2023-03-30T07:14:16.383Z,1474.00
2023-03-30T07:15:16.305Z,1452.00
2023-03-30T07:16:16.244Z,1450.00
2023-03-30T07:17:16.388Z,1430.00
2023-03-30T07:18:16.131Z,1474.00
2023-03-30T07:19:16.012Z,1449.00
2023-03-30T07:20:15.955Z,1340.00
2023-03-30T07:21:15.869Z,1312.00
2023-03-30T07:22:15.803Z,1261.00
2023-03-30T07:23:15.749Z,1218.00
2023-03-30T07:24:15.667Z,1202.00
2023-03-30T07:25:15.611Z,1156.00
2023-03-30T07:26:15.537Z,1057.00
2023-03-30T07:27:15.463Z,1095.00
2023-03-30T07:28:15.398Z,949.00
2023-03-30T07:29:15.332Z,805.00
2023-03-30T07:30:21.940Z,768.00
2023-03-30T07:31:16.216Z,770.00
2023-03-30T07:32:15.178Z,763.00
2023-03-30T07:33:15.143Z,779.00
2023-03-30T07:34:14.996Z,853.00
2023-03-30T07:35:14.932Z,951.00
2023-03-30T07:36:14.916Z,910.00
2023-03-30T07:37:19.971Z,835.00
2023-03-30T07:38:15.790Z,837.00
2023-03-30T07:39:14.710Z,845.00
2023-03-30T07:40:14.724Z,853.00
2023-03-30T07:41:14.587Z,837.00
2023-03-30T07:42:14.506Z,715.00
2023-03-30T07:43:14.445Z,605.00
2023-03-30T07:44:14.401Z,619.00
2023-03-30T07:45:16.290Z,615.00
2023-03-30T07:46:14.376Z,632.00
2023-03-30T07:47:14.227Z,627.00
2023-03-30T07:48:14.239Z,623.00
2023-03-30T07:49:14.206Z,642.00
2023-03-30T07:50:14.251Z,582.00
2023-03-30T07:51:14.213Z,604.00
2023-03-30T07:52:14.214Z,580.00
2023-03-30T07:53:14.224Z,561.00
2023-03-30T07:54:14.236Z,519.00
2023-03-30T07:55:14.226Z,580.00
2023-03-30T07:56:14.184Z,549.00
2023-03-30T07:57:14.286Z,581.00
2023-03-30T07:58:14.091Z,538.00
2023-03-30T07:59:14.016Z,571.00
2023-03-30T08:00:13.971Z,572.00
2023-03-30T08:01:13.903Z,560.00
2023-03-30T08:02:13.921Z,548.00
2023-03-30T08:03:13.926Z,524.00
2023-03-30T08:04:13.836Z,525.00
2023-03-30T08:05:13.757Z,517.00
2023-03-30T08:06:13.628Z,548.00
2023-03-30T08:07:13.608Z,554.00
2023-03-30T08:08:13.559Z,537.00
2023-03-30T08:09:13.517Z,560.00
2023-03-30T08:10:13.535Z,547.00
2023-03-30T08:11:13.526Z,575.00
2023-03-30T08:12:13.527Z,593.00
2023-03-30T08:13:13.530Z,572.00
2023-03-30T08:14:13.511Z,584.00
2023-03-30T08:15:13.539Z,586.00
2023-03-30T08:16:13.565Z,589.00
2023-03-30T08:17:13.539Z,574.00
2023-03-30T08:18:13.588Z,516.00
2023-03-30T08:19:13.552Z,503.00
2023-03-30T08:20:13.549Z,478.00
2023-03-30T08:21:13.581Z,500.00
2023-03-30T08:22:13.584Z,510.00
2023-03-30T08:23:13.577Z,501.00
2023-03-30T08:24:13.562Z,520.00
2023-03-30T08:25:13.552Z,512.00
2023-03-30T08:26:13.480Z,495.00
2023-03-30T08:27:13.479Z,510.00
2023-03-30T08:28:13.382Z,542.00
2023-03-30T08:29:13.332Z,591.00
2023-03-30T08:30:13.354Z,590.00
2023-03-30T08:31:13.269Z,602.00
2023-03-30T08:32:13.269Z,583.00
2023-03-30T08:33:13.199Z,882.00
2023-03-30T08:34:13.101Z,770.00
2023-03-30T08:35:13.064Z,619.00
2023-03-30T08:36:13.023Z,735.00
2023-03-30T08:37:12.983Z,612.00
2023-03-30T08:38:12.925Z,602.00
2023-03-30T08:39:12.882Z,558.00
2023-03-30T08:40:12.885Z,557.00
2023-03-30T08:41:12.769Z,536.00
2023-03-30T08:42:12.821Z,512.00
2023-03-30T08:43:12.681Z,563.00
2023-03-30T08:44:12.644Z,553.00
2023-03-30T08:45:12.592Z,555.00
2023-03-30T08:46:12.572Z,566.00
2023-03-30T08:47:12.462Z,608.00
2023-03-30T08:48:12.446Z,699.00
2023-03-30T08:49:12.367Z,893.00
2023-03-30T08:50:12.306Z,947.00
2023-03-30T08:51:12.256Z,984.00
2023-03-30T08:52:12.251Z,939.00
2023-03-30T08:53:12.127Z,1010.00
2023-03-30T08:54:12.062Z,994.00
2023-03-30T08:55:12.010Z,917.00
2023-03-30T08:56:11.964Z,980.00
2023-03-30T08:57:11.960Z,950.00
2023-03-30T08:58:11.831Z,1003.00
2023-03-30T08:59:11.775Z,961.00
2023-03-30T09:00:11.706Z,966.00
2023-03-30T09:01:11.683Z,970.00
2023-03-30T09:02:11.709Z,1025.00
2023-03-30T09:03:11.680Z,1148.00
2023-03-30T09:04:11.628Z,1204.00
2023-03-30T09:05:11.676Z,1186.00
2023-03-30T09:06:11.653Z,1227.00
2023-03-30T09:07:11.639Z,1296.00
2023-03-30T09:08:11.635Z,1263.00
2023-03-30T09:09:11.643Z,1236.00
2023-03-30T09:10:11.650Z,1095.00
2023-03-30T09:11:11.637Z,1115.00
2023-03-30T09:12:11.658Z,1066.00
2023-03-30T09:13:11.626Z,1031.00
2023-03-30T09:14:11.625Z,1157.00
2023-03-30T09:15:11.625Z,1215.00
2023-03-30T09:16:11.607Z,1217.00
2023-03-30T09:17:11.508Z,1164.00
2023-03-30T09:18:11.584Z,1138.00
2023-03-30T09:19:11.391Z,1066.00
2023-03-30T09:20:11.322Z,962.00
2023-03-30T09:21:11.307Z,1071.00
2023-03-30T09:22:11.353Z,1188.00
2023-03-30T09:23:11.148Z,1217.00
2023-03-30T09:24:11.091Z,1206.00
2023-03-30T09:25:11.028Z,1260.00
2023-03-30T09:26:11.009Z,1244.00
2023-03-30T09:27:11.003Z,1234.00
2023-03-30T09:28:10.997Z,1108.00
2023-03-30T09:29:10.961Z,1110.00
2023-03-30T09:30:10.871Z,1023.00
2023-03-30T09:31:10.910Z,1035.00
2023-03-30T09:32:10.815Z,1105.00
2023-03-30T09:33:10.726Z,1053.00
2023-03-30T09:34:11.760Z,1109.00
2023-03-30T09:35:10.553Z,994.00
2023-03-30T09:36:10.518Z,953.00
2023-03-30T09:37:10.414Z,945.00
2023-03-30T09:38:10.333Z,997.00
2023-03-30T09:39:10.266Z,930.00
2023-03-30T09:40:10.197Z,990.00
2023-03-30T09:41:10.136Z,922.00
2023-03-30T09:42:10.063Z,1024.00
2023-03-30T09:43:09.986Z,1023.00
2023-03-30T09:44:09.914Z,935.00
2023-03-30T09:45:09.868Z,978.00
2023-03-30T09:46:09.824Z,960.00
2023-03-30T09:47:09.721Z,997.00
2023-03-30T09:48:09.728Z,1096.00
2023-03-30T09:49:09.588Z,954.00
2023-03-30T09:50:09.555Z,992.00
2023-03-30T09:51:09.564Z,903.00
2023-03-30T09:52:09.590Z,836.00
2023-03-30T09:53:09.569Z,920.00
2023-03-30T09:54:09.555Z,878.00
2023-03-30T09:55:09.531Z,880.00
2023-03-30T09:56:09.428Z,892.00
2023-03-30T09:57:09.416Z,881.00
2023-03-30T09:58:09.298Z,894.00
2023-03-30T09:59:09.225Z,918.00
2023-03-30T10:00:09.161Z,910.00
2023-03-30T10:01:09.171Z,963.00
2023-03-30T10:02:10.736Z,947.00
2023-03-30T10:03:09.046Z,987.00
2023-03-30T10:04:09.204Z,1072.00
2023-03-30T10:05:08.829Z,923.00
2023-03-30T10:06:08.752Z,1007.00
2023-03-30T10:08:08.605Z,982.00
2023-03-30T10:09:08.544Z,933.00
2023-03-30T10:10:08.478Z,921.00
2023-03-30T10:11:08.399Z,972.00
2023-03-30T10:12:08.326Z,947.00
2023-03-30T10:13:08.271Z,1069.00
2023-03-30T10:14:08.197Z,1073.00
2023-03-30T10:15:08.130Z,1032.00
2023-03-30T10:16:08.491Z,1074.00
2023-03-30T10:17:07.991Z,1015.00
2023-03-30T10:18:08.018Z,1089.00
2023-03-30T10:19:07.859Z,1035.00
2023-03-30T10:20:13.917Z,1005.00
2023-03-30T10:21:08.725Z,1001.00
2023-03-30T10:22:07.647Z,957.00
2023-03-30T10:23:07.560Z,1127.00
2023-03-30T10:24:07.502Z,1177.00
2023-03-30T10:25:09.472Z,1199.00
2023-03-30T10:26:07.597Z,1116.00
2023-03-30T10:27:07.536Z,1161.00
2023-03-30T10:28:07.516Z,992.00
2023-03-30T10:29:07.499Z,1018.00
2023-03-30T10:30:07.442Z,1061.00
2023-03-30T10:31:07.461Z,955.00
2023-03-30T10:32:07.308Z,1064.00
2023-03-30T10:33:07.241Z,989.00
2023-03-30T10:34:07.144Z,1041.00
2023-03-30T10:35:07.072Z,1079.00
2023-03-30T10:36:07.352Z,944.00
2023-03-30T10:37:06.920Z,909.00
2023-03-30T10:38:06.841Z,1024.00
2023-03-30T10:39:06.773Z,1079.00
2023-03-30T10:40:06.699Z,1129.00
2023-03-30T10:41:06.618Z,965.00
2023-03-30T10:42:06.555Z,1106.00
2023-03-30T10:43:06.482Z,884.00
2023-03-30T10:44:06.397Z,963.00
2023-03-30T10:45:06.353Z,968.00
2023-03-30T10:46:18.282Z,989.00
2023-03-30T10:47:07.238Z,971.00
2023-03-30T10:48:06.148Z,999.00
2023-03-30T10:49:06.026Z,1050.00
2023-03-30T10:50:05.943Z,1054.00
2023-03-30T10:51:05.875Z,1053.00
2023-03-30T10:52:05.793Z,1101.00
2023-03-30T10:53:05.714Z,905.00
2023-03-30T10:54:05.641Z,1015.00
2023-03-30T10:55:05.550Z,1165.00
2023-03-30T10:56:05.636Z,1224.00
2023-03-30T10:57:05.437Z,1225.00
2023-03-30T10:58:05.298Z,1243.00
2023-03-30T10:59:05.227Z,1223.00
2023-03-30T11:00:05.141Z,1215.00
2023-03-30T11:01:05.080Z,1209.00
2023-03-30T11:02:05.025Z,1218.00
2023-03-30T11:03:04.999Z,1200.00
2023-03-30T11:04:20.356Z,1238.00
2023-03-30T11:05:05.758Z,1152.00
2023-03-30T11:06:04.841Z,1043.00
2023-03-30T11:07:04.601Z,1119.00
2023-03-30T11:08:04.520Z,1157.00
2023-03-30T11:09:04.453Z,1165.00
2023-03-30T11:10:04.365Z,1146.00
2023-03-30T11:11:04.310Z,1227.00
2023-03-30T11:12:04.217Z,1278.00
2023-03-30T11:13:04.141Z,1278.00
2023-03-30T11:14:04.058Z,1335.00
2023-03-30T11:15:03.970Z,1361.00
2023-03-30T11:16:04.101Z,1369.00
2023-03-30T11:17:03.845Z,1414.00
2023-03-30T11:18:03.817Z,1438.00
2023-03-30T11:19:03.670Z,1453.00
2023-03-30T11:20:03.567Z,1463.00
2023-03-30T11:21:03.509Z,1477.00
2023-03-30T11:22:03.424Z,1495.00
2023-03-30T11:23:03.346Z,1497.00
2023-03-30T11:24:03.272Z,1502.00
2023-03-30T11:25:03.212Z,1513.00
2023-03-30T11:26:03.490Z,1532.00
2023-03-30T11:27:03.066Z,1572.00
2023-03-30T11:28:02.963Z,1575.00
2023-03-30T11:29:02.896Z,1604.00
2023-03-30T11:30:02.831Z,1596.00
2023-03-30T11:31:02.736Z,1597.00
2023-03-30T11:32:02.698Z,1598.00
2023-03-30T11:33:02.586Z,1611.00
2023-03-30T11:34:02.490Z,1626.00
2023-03-30T11:35:02.407Z,1646.00
2023-03-30T11:36:02.471Z,1643.00
2023-03-30T11:37:02.253Z,1664.00
2023-03-30T11:38:02.163Z,1681.00
2023-03-30T11:39:02.084Z,1683.00
2023-03-30T11:40:01.997Z,1691.00
2023-03-30T11:41:01.922Z,1701.00
2023-03-30T11:42:01.829Z,1714.00
2023-03-30T11:43:01.758Z,1717.00
2023-03-30T11:44:01.660Z,1722.00
2023-03-30T11:45:01.563Z,1710.00
2023-03-30T11:46:03.853Z,1732.00
2023-03-30T11:47:01.400Z,1752.00
2023-03-30T11:48:01.357Z,1755.00
2023-03-30T11:49:01.232Z,1748.00
2023-03-30T11:50:01.153Z,1728.00
2023-03-30T11:51:01.089Z,1749.00
2023-03-30T11:52:01.002Z,1777.00
2023-03-30T11:53:00.945Z,1733.00
2023-03-30T11:54:00.833Z,1747.00
2023-03-30T11:55:04.004Z,1735.00
2023-03-30T11:56:00.660Z,1736.00
2023-03-30T11:57:00.668Z,1748.00
2023-03-30T11:58:00.492Z,1827.00
2023-03-30T11:59:00.412Z,1943.00
2023-03-30T12:00:00.329Z,2125.00
2023-03-30T12:01:00.249Z,2145.00
2023-03-30T12:02:00.159Z,2146.00
2023-03-30T12:03:00.177Z,2141.00
2023-03-30T12:04:00.119Z,2144.00
2023-03-30T12:04:59.911Z,2153.00
2023-03-30T12:05:59.818Z,2159.00
2023-03-30T12:06:59.740Z,2146.00
2023-03-30T12:07:59.655Z,2145.00
2023-03-30T12:08:59.561Z,2147.00
2023-03-30T12:10:02.320Z,2077.00
2023-03-30T12:10:59.390Z,2079.00
2023-03-30T12:11:59.319Z,2085.00
2023-03-30T12:12:59.221Z,2091.00
2023-03-30T12:13:59.141Z,2092.00
2023-03-30T12:14:59.056Z,2101.00
2023-03-30T12:15:59.016Z,2092.00
2023-03-30T12:16:58.890Z,2086.00
2023-03-30T12:17:58.825Z,2052.00
2023-03-30T12:18:58.716Z,2053.00
2023-03-30T12:19:58.643Z,2055.00
2023-03-30T12:20:58.549Z,2070.00
2023-03-30T12:21:58.471Z,2060.00